createdAt,value
2023-03-08T00:02:18.320Z,14.10
2023-03-08T00:04:45.141Z,8.77
2023-03-08T00:07:12.124Z,6.70
2023-03-08T00:09:39.048Z,6.38
2023-03-08T00:12:07.592Z,9.60
2023-03-08T00:14:34.403Z,6.88
2023-03-08T00:17:02.607Z,7.00
2023-03-08T00:19:29.609Z,5.88
2023-03-08T00:21:56.584Z,8.85
2023-03-08T00:24:23.527Z,7.70
2023-03-08T00:26:50.343Z,6.80
2023-03-08T00:29:17.169Z,8.20
2023-03-08T00:31:43.967Z,9.48
2023-03-08T00:34:10.933Z,9.10
2023-03-08T00:36:37.710Z,8.43
2023-03-08T00:39:04.703Z,9.02
2023-03-08T00:41:31.750Z,8.93
2023-03-08T00:43:58.488Z,11.65
2023-03-08T00:46:26.198Z,5.72
2023-03-08T00:48:53.043Z,6.15
2023-03-08T00:51:21.170Z,8.23
2023-03-08T00:53:49.890Z,5.65
2023-03-08T00:56:16.761Z,10.10
2023-03-08T00:58:43.605Z,9.90
2023-03-08T01:01:17.002Z,10.55
2023-03-08T01:03:43.951Z,8.27
2023-03-08T01:06:14.412Z,6.65
2023-03-08T01:08:42.305Z,12.68
2023-03-08T01:11:20.935Z,7.13
2023-03-08T01:13:48.756Z,10.32
2023-03-08T01:16:23.017Z,11.68
2023-03-08T01:18:50.955Z,7.45
2023-03-08T01:21:18.093Z,9.73
2023-03-08T01:23:44.986Z,10.38
2023-03-08T01:26:16.123Z,7.20
2023-03-08T01:28:43.725Z,8.40
2023-03-08T01:31:19.867Z,12.63
2023-03-08T01:33:48.247Z,7.90
2023-03-08T01:36:19.083Z,7.78
2023-03-08T01:38:46.790Z,8.80
2023-03-08T01:41:19.851Z,8.65
2023-03-08T01:43:47.327Z,9.25
2023-03-08T01:46:36.302Z,7.97
2023-03-08T01:49:41.773Z,11.00
2023-03-08T01:52:31.397Z,9.50
2023-03-08T01:55:02.476Z,7.85
2023-03-08T01:57:41.700Z,9.60
2023-03-08T02:00:16.075Z,9.23
2023-03-08T02:02:54.651Z,8.48
2023-03-08T02:05:23.459Z,7.43
2023-03-08T02:07:50.310Z,6.70
2023-03-08T02:10:18.569Z,8.40
2023-03-08T02:12:46.098Z,7.65
2023-03-08T02:15:18.292Z,10.60
2023-03-08T02:17:45.155Z,7.97
2023-03-08T02:20:29.347Z,7.05
2023-03-08T02:22:56.139Z,7.63
2023-03-08T02:25:26.926Z,8.57
2023-03-08T02:27:54.968Z,5.70
2023-03-08T02:30:30.392Z,8.60
2023-03-08T02:32:57.201Z,8.13
2023-03-08T02:35:24.023Z,11.35
2023-03-08T02:37:50.816Z,8.40
2023-03-08T02:40:17.954Z,8.48
2023-03-08T02:42:44.691Z,7.13
2023-03-08T02:45:11.787Z,9.95
2023-03-08T02:47:38.556Z,12.20
2023-03-08T02:50:07.004Z,9.05
2023-03-08T02:52:33.771Z,6.85
2023-03-08T02:55:00.508Z,6.90
2023-03-08T02:57:27.251Z,10.55
2023-03-08T02:59:54.061Z,7.22
2023-03-08T03:02:20.777Z,7.30
2023-03-08T03:04:47.594Z,9.50
2023-03-08T03:07:14.315Z,8.25
2023-03-08T03:09:41.107Z,5.97
2023-03-08T03:12:08.304Z,10.43
2023-03-08T03:14:35.046Z,8.05
2023-03-08T03:17:01.783Z,9.25
2023-03-08T03:19:28.525Z,10.55
2023-03-08T03:21:55.273Z,7.47
2023-03-08T03:24:22.004Z,8.57
2023-03-08T03:26:51.498Z,7.68
2023-03-08T03:29:18.721Z,9.23
2023-03-08T03:31:45.638Z,10.70
2023-03-08T03:34:12.377Z,16.42
2023-03-08T03:36:39.118Z,9.45
2023-03-08T03:39:06.296Z,11.57
2023-03-08T03:41:33.050Z,10.07
2023-03-08T03:43:59.817Z,11.48
2023-03-08T03:46:26.724Z,9.07
2023-03-08T03:48:53.645Z,8.77
2023-03-08T03:51:22.602Z,14.70
2023-03-08T03:53:49.852Z,9.68
2023-03-08T03:56:20.589Z,10.15
2023-03-08T03:58:48.440Z,8.18
2023-03-08T04:01:21.609Z,12.90
2023-03-08T04:03:49.437Z,10.60
2023-03-08T04:06:28.680Z,18.05
2023-03-08T04:08:59.750Z,15.70
2023-03-08T04:11:31.606Z,13.00
2023-03-08T04:13:58.686Z,13.85
2023-03-08T04:16:34.463Z,17.95
2023-03-08T04:19:12.097Z,10.10
2023-03-08T04:21:39.101Z,15.40
2023-03-08T04:24:06.423Z,12.70
2023-03-08T04:26:33.678Z,16.15
2023-03-08T04:29:03.172Z,12.18
2023-03-08T04:31:30.429Z,12.57
2023-03-08T04:33:58.541Z,25.42
2023-03-08T04:36:25.921Z,14.18
2023-03-08T04:38:58.846Z,16.05
2023-03-08T04:41:26.204Z,12.80
2023-03-08T04:43:56.785Z,14.55
2023-03-08T04:46:27.620Z,23.42
2023-03-08T04:48:55.877Z,15.18
2023-03-08T04:51:25.908Z,16.52
2023-03-08T04:53:52.994Z,20.20
2023-03-08T04:56:20.061Z,16.17
2023-03-08T04:58:47.167Z,11.98
2023-03-08T05:01:20.291Z,14.13
2023-03-08T05:03:49.867Z,16.33
2023-03-08T05:06:16.972Z,19.33
2023-03-08T05:08:44.110Z,15.90
2023-03-08T05:11:21.310Z,23.10
2023-03-08T05:13:48.363Z,12.18
2023-03-08T05:16:15.613Z,21.80
2023-03-08T05:18:42.757Z,10.82
2023-03-08T05:21:19.388Z,10.68
2023-03-08T05:23:46.993Z,12.68
2023-03-08T05:26:17.414Z,17.73
2023-03-08T05:28:44.654Z,14.45
2023-03-08T05:31:15.990Z,13.75
2023-03-08T05:33:46.557Z,17.15
2023-03-08T05:36:14.616Z,13.38
2023-03-08T05:38:42.498Z,14.52
2023-03-08T05:41:14.793Z,9.60
2023-03-08T05:43:42.151Z,12.45
2023-03-08T05:46:15.663Z,16.95
2023-03-08T05:48:42.847Z,22.52
2023-03-08T05:51:13.831Z,15.27
2023-03-08T05:53:41.365Z,32.70
2023-03-08T05:56:14.778Z,12.38
2023-03-08T05:58:43.662Z,15.25
2023-03-08T06:01:25.959Z,15.10
2023-03-08T06:03:56.111Z,14.18
2023-03-08T06:06:26.701Z,13.63
2023-03-08T06:08:54.260Z,17.55
2023-03-08T06:11:21.070Z,11.07
2023-03-08T06:13:47.942Z,20.02
2023-03-08T06:16:15.088Z,22.98
2023-03-08T06:18:42.939Z,20.40
2023-03-08T06:21:23.770Z,19.02
2023-03-08T06:23:50.767Z,12.73
2023-03-08T06:26:18.230Z,12.75
2023-03-08T06:28:45.594Z,14.48
2023-03-08T06:31:18.241Z,11.50
2023-03-08T06:33:45.047Z,19.63
2023-03-08T06:36:21.142Z,16.35
2023-03-08T06:38:48.923Z,15.25
2023-03-08T06:41:18.282Z,22.42
2023-03-08T06:43:45.171Z,17.05
2023-03-08T06:46:17.200Z,12.80
2023-03-08T06:48:45.337Z,15.18
2023-03-08T06:51:12.389Z,15.73
2023-03-08T06:53:39.481Z,14.30
2023-03-08T06:56:09.171Z,14.30
2023-03-08T06:58:37.160Z,11.43
2023-03-08T07:01:05.777Z,12.52
2023-03-08T07:03:33.724Z,15.95
2023-03-08T07:06:07.734Z,12.35
2023-03-08T07:08:35.762Z,13.35
2023-03-08T07:11:02.947Z,14.20
2023-03-08T07:13:29.992Z,13.65
2023-03-08T07:15:57.663Z,15.32
2023-03-08T07:18:25.222Z,16.77
2023-03-08T07:20:54.058Z,8.60
2023-03-08T07:23:20.866Z,15.32
2023-03-08T07:25:47.633Z,14.25
2023-03-08T07:28:14.418Z,15.27
2023-03-08T07:30:41.397Z,29.42
2023-03-08T07:33:11.949Z,24.23
2023-03-08T07:35:40.095Z,16.85
2023-03-08T07:38:07.242Z,15.95
2023-03-08T07:40:34.046Z,16.05
2023-03-08T07:43:01.152Z,17.70
2023-03-08T07:45:27.932Z,19.30
2023-03-08T07:47:54.987Z,14.45
2023-03-08T07:50:22.003Z,21.75
2023-03-08T07:52:49.433Z,11.02
2023-03-08T07:55:16.645Z,15.13
2023-03-08T07:57:43.438Z,15.65
2023-03-08T08:00:11.110Z,11.93
2023-03-08T08:02:38.144Z,14.02
2023-03-08T08:05:05.882Z,14.90
2023-03-08T08:07:32.786Z,12.82
2023-03-08T08:09:59.512Z,9.73
2023-03-08T08:12:26.446Z,19.73
2023-03-08T08:14:53.644Z,12.27
2023-03-08T08:17:21.339Z,15.82
2023-03-08T08:19:49.258Z,16.38
2023-03-08T08:22:16.126Z,20.10
2023-03-08T08:24:42.926Z,22.13
2023-03-08T08:27:09.747Z,16.10
2023-03-08T08:29:37.899Z,16.55
2023-03-08T08:32:05.493Z,15.07
2023-03-08T08:34:32.334Z,20.63
2023-03-08T08:36:59.084Z,24.48
2023-03-08T08:39:25.815Z,17.42
2023-03-08T08:41:52.696Z,15.23
2023-03-08T08:44:19.515Z,11.82
2023-03-08T08:46:46.342Z,15.63
2023-03-08T08:49:13.092Z,10.95
2023-03-08T08:51:41.601Z,8.02
2023-03-08T08:54:08.404Z,11.65
2023-03-08T08:56:35.322Z,12.77
2023-03-08T08:59:03.374Z,15.02
2023-03-08T09:01:33.434Z,8.48
2023-03-08T09:04:00.767Z,10.73
2023-03-08T09:06:29.547Z,6.45
2023-03-08T09:08:58.865Z,9.60
2023-03-08T09:11:27.851Z,10.30
2023-03-08T09:13:55.119Z,11.52
2023-03-08T09:16:30.220Z,4.10
2023-03-08T09:18:59.185Z,7.00
2023-03-08T09:21:28.262Z,7.95
2023-03-08T09:23:58.648Z,7.93
2023-03-08T09:26:25.468Z,7.35
2023-03-08T09:28:52.201Z,11.73
2023-03-08T09:31:19.174Z,8.75
2023-03-08T09:33:52.032Z,6.05
2023-03-08T09:38:49.006Z,7.28
2023-03-08T09:41:42.930Z,9.23
2023-03-08T09:44:34.870Z,5.85
2023-03-08T09:47:48.328Z,5.55
2023-03-08T09:50:37.136Z,7.40
2023-03-08T09:53:28.433Z,5.03
2023-03-08T09:56:31.815Z,7.45
2023-03-08T09:59:05.084Z,5.35
2023-03-08T10:02:03.436Z,5.20
2023-03-08T10:05:13.761Z,5.32
2023-03-08T10:08:09.793Z,5.43
2023-03-08T10:11:02.823Z,4.28
2023-03-08T10:13:50.803Z,2.35
2023-03-08T10:16:26.547Z,2.72
2023-03-08T10:19:15.195Z,3.70
2023-03-08T10:21:44.807Z,3.08
2023-03-08T10:24:26.802Z,2.33
2023-03-08T10:27:03.027Z,7.68
2023-03-08T10:29:30.617Z,2.58
2023-03-08T10:31:57.360Z,3.83
2023-03-08T10:34:31.289Z,4.22
2023-03-08T10:37:02.772Z,2.70
2023-03-08T10:39:30.320Z,4.00
2023-03-08T10:42:02.629Z,3.85
2023-03-08T10:44:40.065Z,7.10
2023-03-08T10:48:21.983Z,10.38
2023-03-08T10:51:00.374Z,3.00
2023-03-08T10:53:29.675Z,3.00
2023-03-08T10:55:59.419Z,1.92
2023-03-08T10:58:38.350Z,4.32
2023-03-08T11:01:30.426Z,2.80
2023-03-08T11:04:06.247Z,2.20
2023-03-08T11:06:37.621Z,2.85
2023-03-08T11:09:31.335Z,2.05
2023-03-08T11:12:00.120Z,2.83
2023-03-08T11:18:20.006Z,2.20
2023-03-08T11:20:56.566Z,1.45
2023-03-08T11:23:43.473Z,1.90
2023-03-08T11:26:30.612Z,3.13
2023-03-08T11:29:14.985Z,10.18
2023-03-08T11:32:41.077Z,4.63
2023-03-08T11:35:44.233Z,7.15
2023-03-08T11:38:36.851Z,11.02
2023-03-08T11:41:27.693Z,5.13
2023-03-08T11:44:31.712Z,11.55
2023-03-08T11:47:16.034Z,10.38
2023-03-08T11:49:51.595Z,12.98
2023-03-08T11:52:50.208Z,3.38
2023-03-08T11:55:22.634Z,2.85
2023-03-08T11:58:01.798Z,8.00
2023-03-08T12:00:39.464Z,7.70
2023-03-08T12:03:17.882Z,3.30
2023-03-08T12:05:57.996Z,2.38
2023-03-08T12:09:01.722Z,6.07
2023-03-08T12:14:31.529Z,2.10
2023-03-08T12:17:21.035Z,2.90
2023-03-08T12:19:50.888Z,2.45
2023-03-08T12:23:05.040Z,4.35
2023-03-08T12:25:40.155Z,13.02
2023-03-08T12:28:31.134Z,6.82
2023-03-08T12:31:26.328Z,1.10
2023-03-08T12:33:55.780Z,4.13
2023-03-08T12:36:39.678Z,1.77
2023-03-08T12:39:34.311Z,1.63
2023-03-08T12:42:33.853Z,0.70
2023-03-08T12:45:23.345Z,2.63
2023-03-08T12:48:04.952Z,0.85
2023-03-08T12:50:54.391Z,2.20
2023-03-08T12:53:32.885Z,1.13
2023-03-08T12:56:09.805Z,1.60
2023-03-08T12:58:57.819Z,1.23
2023-03-08T13:01:40.034Z,2.08
2023-03-08T13:04:42.155Z,2.25
2023-03-08T13:07:32.503Z,5.47
2023-03-08T13:10:18.937Z,1.23
2023-03-08T13:12:54.227Z,2.72
2023-03-08T13:15:26.476Z,2.63
2023-03-08T13:18:09.548Z,3.13
2023-03-08T13:21:05.334Z,3.85
2023-03-08T13:24:30.194Z,4.75
2023-03-08T13:27:21.991Z,4.07
2023-03-08T13:29:49.253Z,1.83
2023-03-08T13:32:20.625Z,2.63
2023-03-08T13:35:05.207Z,1.95
2023-03-08T13:37:32.449Z,1.83
2023-03-08T13:40:00.687Z,1.88
2023-03-08T13:42:29.130Z,3.58
2023-03-08T13:45:10.194Z,5.10
2023-03-08T13:47:39.913Z,9.02
2023-03-08T13:50:07.146Z,3.38
2023-03-08T13:52:38.301Z,1.20
2023-03-08T13:55:08.964Z,2.10
2023-03-08T13:57:38.187Z,2.25
2023-03-08T14:00:42.759Z,1.67
2023-03-08T14:03:20.795Z,1.50
2023-03-08T14:05:48.427Z,1.00
2023-03-08T14:08:25.190Z,0.60
2023-03-08T14:11:01.196Z,1.27
2023-03-08T14:13:33.018Z,0.95
2023-03-08T14:16:07.495Z,0.55
2023-03-08T14:18:43.789Z,0.98
2023-03-08T14:21:19.486Z,1.92
2023-03-08T14:23:51.065Z,2.40
2023-03-08T14:26:35.687Z,0.30
2023-03-08T14:29:19.189Z,0.40
2023-03-08T14:31:59.124Z,0.75
2023-03-08T14:34:27.650Z,0.40
2023-03-08T14:37:20.035Z,0.50
2023-03-08T14:39:49.115Z,2.42
2023-03-08T14:42:26.662Z,0.40
2023-03-08T14:45:04.885Z,0.30
2023-03-08T14:47:34.599Z,0.50
2023-03-08T14:50:07.369Z,0.40
2023-03-08T14:52:46.348Z,0.52
2023-03-08T14:55:41.475Z,0.47
2023-03-08T14:58:13.637Z,0.55
2023-03-08T15:00:54.812Z,0.30
2023-03-08T15:04:24.491Z,0.30
2023-03-08T15:06:54.012Z,0.38
2023-03-08T15:09:22.609Z,0.20
2023-03-08T15:11:52.682Z,0.80
2023-03-08T15:14:19.838Z,0.20
2023-03-08T15:16:46.749Z,0.47
2023-03-08T15:19:14.174Z,0.20
2023-03-08T15:21:43.844Z,1.05
2023-03-08T15:24:17.519Z,0.25
2023-03-08T15:26:45.924Z,0.85
2023-03-08T15:29:34.038Z,0.32
2023-03-08T15:32:00.898Z,0.20
2023-03-08T15:34:28.508Z,2.08
2023-03-08T15:36:55.809Z,0.25
2023-03-08T15:39:22.946Z,0.85
2023-03-08T15:41:49.908Z,0.40
2023-03-08T15:44:17.103Z,0.60
2023-03-08T15:46:43.930Z,1.00
2023-03-08T15:49:11.237Z,0.20
2023-03-08T15:51:38.581Z,0.43
2023-03-08T15:54:06.664Z,1.75
2023-03-08T15:56:34.296Z,1.40
2023-03-08T15:59:01.173Z,0.98
2023-03-08T16:01:28.082Z,0.98
2023-03-08T16:03:57.266Z,0.93
2023-03-08T16:06:24.797Z,1.20
2023-03-08T16:08:51.690Z,3.58
2023-03-08T16:11:22.430Z,0.60
2023-03-08T16:13:53.382Z,3.60
2023-03-08T16:16:21.221Z,1.15
2023-03-08T16:22:35.024Z,1.15
2023-03-08T16:25:02.108Z,1.27
2023-03-08T16:27:35.115Z,3.60
2023-03-08T16:30:04.072Z,2.10
2023-03-08T16:32:30.861Z,1.95
2023-03-08T16:34:59.196Z,1.60
2023-03-08T16:37:27.028Z,2.38
2023-03-08T16:39:59.284Z,3.40
2023-03-08T16:42:26.199Z,5.22
2023-03-08T16:44:55.173Z,10.02
2023-03-08T16:47:24.096Z,7.00
2023-03-08T16:49:50.946Z,7.93
2023-03-08T16:52:18.575Z,1.98
2023-03-08T16:54:45.850Z,2.53
2023-03-08T16:57:19.685Z,2.80
2023-03-08T16:59:47.751Z,7.72
2023-03-08T17:02:20.729Z,5.57
2023-03-08T17:04:49.372Z,4.55
2023-03-08T17:07:17.422Z,11.77
2023-03-08T17:09:45.482Z,6.50
2023-03-08T17:12:12.247Z,5.97
2023-03-08T17:14:38.998Z,3.50
2023-03-08T17:17:05.830Z,3.58
2023-03-08T17:19:32.589Z,5.78
2023-03-08T17:21:59.381Z,3.05
2023-03-08T17:24:28.408Z,1.45
2023-03-08T17:26:55.822Z,3.58
2023-03-08T17:29:23.303Z,4.95
2023-03-08T17:31:51.218Z,5.57
2023-03-08T17:34:20.863Z,3.00
2023-03-08T17:36:47.988Z,1.50
2023-03-08T17:39:15.188Z,2.25
2023-03-08T17:41:43.055Z,2.60
2023-03-08T17:44:09.823Z,6.72
2023-03-08T17:46:36.847Z,3.78
2023-03-08T17:49:04.045Z,1.17
2023-03-08T17:51:32.391Z,2.97
2023-03-08T17:54:01.249Z,8.50
2023-03-08T17:56:32.162Z,5.80
2023-03-08T17:59:01.168Z,13.85
2023-03-08T18:01:31.050Z,8.43
2023-03-08T18:03:58.346Z,4.63
2023-03-08T18:06:35.012Z,2.55
2023-03-08T18:09:09.594Z,1.80
2023-03-08T18:11:39.493Z,4.97
2023-03-08T18:14:12.004Z,2.00
2023-03-08T18:16:39.579Z,1.95
2023-03-08T18:19:07.233Z,4.53
2023-03-08T18:21:36.111Z,6.25
2023-03-08T18:24:02.974Z,4.15
2023-03-08T18:26:29.718Z,3.33
2023-03-08T18:28:56.636Z,4.30
2023-03-08T18:31:26.479Z,3.55
2023-03-08T18:33:54.976Z,2.42
2023-03-08T18:36:23.424Z,1.85
2023-03-08T18:38:50.872Z,2.78
2023-03-08T18:41:23.103Z,4.03
2023-03-08T18:43:51.290Z,3.55
2023-03-08T18:46:18.796Z,1.85
2023-03-08T18:48:50.919Z,2.65
2023-03-08T18:51:18.002Z,3.70
2023-03-08T18:53:44.797Z,1.75
2023-03-08T18:56:11.691Z,3.95
2023-03-08T18:58:38.642Z,2.40
2023-03-08T19:01:15.581Z,8.75
2023-03-08T19:03:45.184Z,4.38
2023-03-08T19:06:13.377Z,2.88
2023-03-08T19:08:40.942Z,5.28
2023-03-08T19:11:23.158Z,4.97
2023-03-08T19:13:50.357Z,1.90
2023-03-08T19:16:22.058Z,5.15
2023-03-08T19:18:52.150Z,3.30
2023-03-08T19:21:25.032Z,5.50
2023-03-08T19:26:39.003Z,4.78
2023-03-08T19:29:21.681Z,11.35
2023-03-08T19:32:01.160Z,10.48
2023-03-08T19:34:37.447Z,3.58
2023-03-08T19:37:05.914Z,2.58
2023-03-08T19:39:38.286Z,4.70
2023-03-08T19:42:09.388Z,4.60
2023-03-08T19:44:36.248Z,3.65
2023-03-08T19:47:04.687Z,3.28
2023-03-08T19:49:35.169Z,3.20
2023-03-08T19:52:05.757Z,4.97
2023-03-08T19:54:33.193Z,1.58
2023-03-08T19:57:01.168Z,7.03
2023-03-08T19:59:28.466Z,3.60
2023-03-08T20:01:56.248Z,2.38
2023-03-08T20:04:23.972Z,9.80
2023-03-08T20:06:51.487Z,8.45
2023-03-08T20:09:24.098Z,6.85
2023-03-08T20:11:57.339Z,5.47
2023-03-08T20:14:27.419Z,9.68
2023-03-08T20:16:55.156Z,2.72
2023-03-08T20:19:22.081Z,13.55
2023-03-08T20:21:48.961Z,2.45
2023-03-08T20:24:18.291Z,3.38
2023-03-08T20:26:45.801Z,3.05
2023-03-08T20:29:12.669Z,2.25
2023-03-08T20:31:39.663Z,2.83
2023-03-08T20:34:06.605Z,1.75
2023-03-08T20:36:33.468Z,2.10
2023-03-08T20:39:00.492Z,3.55
2023-03-08T20:41:27.713Z,5.30
2023-03-08T20:43:55.898Z,4.25
2023-03-08T20:46:27.635Z,1.00
2023-03-08T20:48:54.603Z,2.83
2023-03-08T20:51:24.029Z,7.63
2023-03-08T20:53:53.026Z,3.83
2023-03-08T20:56:21.874Z,5.50
2023-03-08T20:58:49.056Z,2.50
2023-03-08T21:01:23.726Z,1.58
2023-03-08T21:03:50.788Z,4.88
2023-03-08T21:06:24.965Z,1.70
2023-03-08T21:08:52.367Z,2.25
2023-03-08T21:11:19.359Z,2.13
2023-03-08T21:13:48.876Z,19.02
2023-03-08T21:16:18.200Z,5.38
2023-03-08T21:18:52.589Z,3.60
2023-03-08T21:21:30.338Z,3.25
2023-03-08T21:24:00.097Z,5.65
2023-03-08T21:26:29.233Z,4.93
2023-03-08T21:29:03.745Z,2.25
2023-03-08T21:31:32.912Z,2.28
2023-03-08T21:34:03.275Z,3.45
2023-03-08T21:36:31.004Z,3.65
2023-03-08T21:38:59.666Z,4.40
2023-03-08T21:41:30.118Z,3.17
2023-03-08T21:43:58.002Z,0.90
2023-03-08T21:46:25.944Z,2.95
2023-03-08T21:48:55.030Z,2.92
2023-03-08T21:51:22.564Z,13.38
2023-03-08T21:53:49.403Z,12.73
2023-03-08T21:56:18.133Z,17.23
2023-03-08T21:58:45.431Z,6.90
2023-03-08T22:01:25.322Z,5.80
2023-03-08T22:03:54.558Z,2.90
2023-03-08T22:06:22.644Z,6.03
2023-03-08T22:08:50.536Z,4.82
2023-03-08T22:11:19.326Z,1.63
2023-03-08T22:13:54.602Z,4.50
2023-03-08T22:16:21.750Z,7.13
2023-03-08T22:18:52.631Z,4.88
2023-03-08T22:21:20.128Z,5.95
2023-03-08T22:23:52.118Z,2.95
2023-03-08T22:26:20.469Z,6.50
2023-03-08T22:28:47.819Z,7.32
2023-03-08T22:31:19.045Z,5.25
2023-03-08T22:33:46.275Z,3.38
2023-03-08T22:36:16.691Z,1.58
2023-03-08T22:38:43.672Z,2.10
2023-03-08T22:41:22.789Z,4.72
2023-03-08T22:43:50.742Z,4.57
2023-03-08T22:46:22.359Z,1.95
2023-03-08T22:48:50.148Z,2.45
2023-03-08T22:51:19.834Z,1.35
2023-03-08T22:53:46.867Z,3.50
2023-03-08T22:56:29.646Z,1.50
2023-03-08T22:58:57.746Z,2.03
2023-03-08T23:01:25.987Z,0.93
2023-03-08T23:03:58.168Z,3.85
2023-03-08T23:06:28.444Z,3.72
2023-03-08T23:08:57.289Z,2.28
2023-03-08T23:11:24.318Z,2.17
2023-03-08T23:13:51.158Z,8.88
2023-03-08T23:16:18.109Z,8.23
2023-03-08T23:18:49.563Z,3.22
2023-03-08T23:21:18.818Z,3.22
2023-03-08T23:23:46.018Z,2.03
2023-03-08T23:26:18.138Z,1.33
2023-03-08T23:28:44.926Z,0.93
2023-03-08T23:31:21.511Z,1.60
2023-03-08T23:33:49.789Z,1.52
2023-03-08T23:36:19.233Z,4.78
2023-03-08T23:38:46.305Z,1.63
2023-03-08T23:41:14.240Z,1.33
2023-03-08T23:43:41.932Z,3.15
2023-03-08T23:46:16.678Z,4.13
2023-03-08T23:48:44.673Z,1.10
2023-03-08T23:51:15.689Z,1.70
2023-03-08T23:53:42.656Z,3.38
2023-03-08T23:56:30.153Z,2.92
2023-03-08T23:59:00.116Z,1.33
